Remlap, AL (35133)

6:29 PM CST on February 10, 2016 (GMT -0600)
Sgt's Ridge near SHS | | Change Station
CLOSE
Current Station
Personal Weather Station
Location: Remlap, AL
Elevation: 669 ft
Nearby Weather Stations

Elev 669 ft 33.83 °N, 86.59 °W | Updated 4 minutes ago

Partly Cloudy
Partly Cloudy
34.0 °F
Feels Like 34 °F
N
0.0
Wind Variable Wind from SSW
Gusts 2.0 mph

Today
High -- | Low -- °F
--% Chance of Precip.
Yesterday
High -- | Low -- °F
Precip. -- in
Pressure 30.18 in
Visibility 10.0 miles
Clouds Few 10000 ft
Windchill 34 °F
Dew Point 10 °F
Humidity 36%
Rainfall 0.00 in
Snow Depth Not available.
6:36 AM 5:25 PM
Waxing Crescent, 8% visible
METAR KBHM 102353Z 27007KT 10SM FEW100 04/M14 A3017 RMK AO2 SLP220 T00441139 10056 20017 58001
Pressure 30.18 in
Visibility 10.0 miles
Clouds Few 10000 ft
Windchill 34 °F
Dew Point 10 °F
Humidity 36%
Rainfall 0.00 in
Snow Depth Not available.
6:36 AM 5:25 PM
Waxing Crescent, 8% visible
METAR KBHM 102353Z 27007KT 10SM FEW100 04/M14 A3017 RMK AO2 SLP220 T00441139 10056 20017 58001

10-Day Weather Forecast

Almanac

Astronomy

Feb. 10, 2016 Rise Set
Actual Time
Civil Twilight
Nautical Twilight
Astronomical Twilight
Moon
Length of Visible Light
Length of Day
Tomorrow will be .
, % of the Moon is Illuminated

Today's Extremes

State Highs State Lows

Community

WunderPhotos

Upload Photos

1,891,944 photos uploaded!

WunderBlog® & News

Nearby

Air Quality

  Air Quality AQ Index Pollutant
Not available.

Snow Depth

Station Depth Elevation

Earthquake Activity

City Distance Mag. Time & Date
Minimum magnitude displayed is 2.5.

Coastal Water Temperatures

Place Temperature

Stations

Nearby Weather Stations

Station Location Temp. Windchill Dew Point Humidity Wind Precip. Elev Updated Type
                   

Watches & Warnings

There are currently no watches in effect.